sensor_id;sensor_type;location;lat;lon;timestamp;temperature;humidity
15048;DHT22;7621;52.350;13.308;2023-03-20T05:50:58;11.20;99.90
15048;DHT22;7621;52.350;13.308;2023-03-20T05:53:24;11.20;99.90
15048;DHT22;7621;52.350;13.308;2023-03-20T05:55:49;11.30;99.90
15048;DHT22;7621;52.350;13.308;2023-03-20T05:58:15;11.30;99.90
15048;DHT22;7621;52.350;13.308;2023-03-20T06:00:41;11.30;99.90
15048;DHT22;7621;52.350;13.308;2023-03-20T06:03:06;11.30;99.90
15048;DHT22;7621;52.350;13.308;2023-03-20T06:05:33;11.30;99.90
15048;DHT22;7621;52.350;13.308;2023-03-20T06:07:59;11.30;99.90
15048;DHT22;7621;52.350;13.308;2023-03-20T06:10:26;11.40;99.90
15048;DHT22;7621;52.350;13.308;2023-03-20T06:12:52;11.40;99.90
15048;DHT22;7621;52.350;13.308;2023-03-20T06:15:18;11.40;99.90
15048;DHT22;7621;52.350;13.308;2023-03-20T06:17:44;11.40;99.90
15048;DHT22;7621;52.350;13.308;2023-03-20T06:20:10;11.50;99.90
15048;DHT22;7621;52.350;13.308;2023-03-20T06:22:36;11.50;99.90
15048;DHT22;7621;52.350;13.308;2023-03-20T06:25:01;11.60;99.90
15048;DHT22;7621;52.350;13.308;2023-03-20T06:27:27;11.60;99.90
15048;DHT22;7621;52.350;13.308;2023-03-20T06:29:52;11.70;99.90
15048;DHT22;7621;52.350;13.308;2023-03-20T06:32:18;11.70;99.90
15048;DHT22;7621;52.350;13.308;2023-03-20T06:34:44;11.80;99.90
15048;DHT22;7621;52.350;13.308;2023-03-20T06:37:09;11.80;99.90
15048;DHT22;7621;52.350;13.308;2023-03-20T06:39:35;11.80;99.90
15048;DHT22;7621;52.350;13.308;2023-03-20T06:42:01;11.80;99.90
15048;DHT22;7621;52.350;13.308;2023-03-20T06:44:26;11.80;99.90
15048;DHT22;7621;52.350;13.308;2023-03-20T06:46:52;11.90;99.90
15048;DHT22;7621;52.350;13.308;2023-03-20T06:49:18;11.90;99.90
15048;DHT22;7621;52.350;13.308;2023-03-20T06:51:43;11.90;99.90
15048;DHT22;7621;52.350;13.308;2023-03-20T06:54:09;11.90;99.90
15048;DHT22;7621;52.350;13.308;2023-03-20T06:56:35;11.90;99.90
15048;DHT22;7621;52.350;13.308;2023-03-20T06:59:00;11.90;99.90
15048;DHT22;7621;52.350;13.308;2023-03-20T07:01:26;11.90;99.90
15048;DHT22;7621;52.350;13.308;2023-03-20T07:03:52;11.90;99.90
15048;DHT22;7621;52.350;13.308;2023-03-20T07:06:18;11.80;99.90
15048;DHT22;7621;52.350;13.308;2023-03-20T07:08:43;11.80;99.90
15048;DHT22;7621;52.350;13.308;2023-03-20T07:11:10;11.80;99.90
15048;DHT22;7621;52.350;13.308;2023-03-20T07:13:35;11.80;99.90
15048;DHT22;7621;52.350;13.308;2023-03-20T07:16:02;11.70;99.90
15048;DHT22;7621;52.350;13.308;2023-03-20T07:18:28;11.70;99.90
15048;DHT22;7621;52.350;13.308;2023-03-20T07:20:58;11.70;99.90
15048;DHT22;7621;52.350;13.308;2023-03-20T07:23:24;11.60;99.90
15048;DHT22;7621;52.350;13.308;2023-03-20T07:25:50;11.70;99.90
15048;DHT22;7621;52.350;13.308;2023-03-20T07:28:16;11.70;99.90
15048;DHT22;7621;52.350;13.308;2023-03-20T07:30:41;11.60;99.90
15048;DHT22;7621;52.350;13.308;2023-03-20T07:33:07;11.60;99.90
15048;DHT22;7621;52.350;13.308;2023-03-20T07:35:33;11.60;99.90
15048;DHT22;7621;52.350;13.308;2023-03-20T07:37:58;11.60;99.90
15048;DHT22;7621;52.350;13.308;2023-03-20T07:40:24;11.60;99.90
15048;DHT22;7621;52.350;13.308;2023-03-20T07:42:50;11.60;99.90
15048;DHT22;7621;52.350;13.308;2023-03-20T07:45:16;11.60;99.90
15048;DHT22;7621;52.350;13.308;2023-03-20T07:47:43;11.70;99.90
15048;DHT22;7621;52.350;13.308;2023-03-20T07:50:10;11.70;99.90
15048;DHT22;7621;52.350;13.308;2023-03-20T07:52:36;11.70;99.90
15048;DHT22;7621;52.350;13.308;2023-03-20T07:55:02;11.80;99.90
15048;DHT22;7621;52.350;13.308;2023-03-20T07:57:27;11.80;99.90
15048;DHT22;7621;52.350;13.308;2023-03-20T07:59:53;11.90;99.90
15048;DHT22;7621;52.350;13.308;2023-03-20T08:02:18;11.90;99.90
15048;DHT22;7621;52.350;13.308;2023-03-20T08:04:44;11.90;99.90
15048;DHT22;7621;52.350;13.308;2023-03-20T08:07:11;12.00;99.90
15048;DHT22;7621;52.350;13.308;2023-03-20T08:09:37;12.00;99.90
15048;DHT22;7621;52.350;13.308;2023-03-20T08:12:03;12.10;99.90
15048;DHT22;7621;52.350;13.308;2023-03-20T08:14:29;12.20;99.90
15048;DHT22;7621;52.350;13.308;2023-03-20T08:16:55;12.40;99.90
15048;DHT22;7621;52.350;13.308;2023-03-20T08:19:20;12.50;99.90
15048;DHT22;7621;52.350;13.308;2023-03-20T08:21:46;12.50;99.90
15048;DHT22;7621;52.350;13.308;2023-03-20T08:24:12;12.50;99.90
15048;DHT22;7621;52.350;13.308;2023-03-20T08:26:38;12.50;99.90
15048;DHT22;7621;52.350;13.308;2023-03-20T08:29:04;12.50;99.90
15048;DHT22;7621;52.350;13.308;2023-03-20T08:31:29;12.50;99.90
15048;DHT22;7621;52.350;13.308;2023-03-20T08:33:56;12.40;99.90
15048;DHT22;7621;52.350;13.308;2023-03-20T08:36:22;12.40;99.90
15048;DHT22;7621;52.350;13.308;2023-03-20T08:38:48;12.30;99.90
15048;DHT22;7621;52.350;13.308;2023-03-20T08:41:15;12.30;99.90
15048;DHT22;7621;52.350;13.308;2023-03-20T08:43:40;12.30;99.90
15048;DHT22;7621;52.350;13.308;2023-03-20T08:46:06;12.30;99.90
15048;DHT22;7621;52.350;13.308;2023-03-20T08:48:32;12.50;99.90
15048;DHT22;7621;52.350;13.308;2023-03-20T08:50:58;12.70;99.90
15048;DHT22;7621;52.350;13.308;2023-03-20T08:53:23;13.00;99.90
15048;DHT22;7621;52.350;13.308;2023-03-20T08:55:50;13.40;99.90
15048;DHT22;7621;52.350;13.308;2023-03-20T08:58:17;13.90;99.90
15048;DHT22;7621;52.350;13.308;2023-03-20T09:00:43;14.40;99.90
15048;DHT22;7621;52.350;13.308;2023-03-20T09:03:17;14.90;99.90
15048;DHT22;7621;52.350;13.308;2023-03-20T09:05:43;15.50;99.90
15048;DHT22;7621;52.350;13.308;2023-03-20T09:08:09;16.20;99.00
15048;DHT22;7621;52.350;13.308;2023-03-20T09:10:35;16.70;96.20
15048;DHT22;7621;52.350;13.308;2023-03-20T09:13:01;16.90;94.00
15048;DHT22;7621;52.350;13.308;2023-03-20T09:15:27;16.90;92.70
15048;DHT22;7621;52.350;13.308;2023-03-20T09:17:52;16.70;92.20
15048;DHT22;7621;52.350;13.308;2023-03-20T09:20:18;16.40;91.50
15048;DHT22;7621;52.350;13.308;2023-03-20T09:22:43;16.00;91.60
15048;DHT22;7621;52.350;13.308;2023-03-20T09:25:10;15.90;92.10
15048;DHT22;7621;52.350;13.308;2023-03-20T09:27:37;15.60;92.10
15048;DHT22;7621;52.350;13.308;2023-03-20T09:30:04;15.50;92.30
15048;DHT22;7621;52.350;13.308;2023-03-20T09:32:30;15.50;92.40
15048;DHT22;7621;52.350;13.308;2023-03-20T09:34:55;15.50;92.70
15048;DHT22;7621;52.350;13.308;2023-03-20T09:37:21;15.70;92.50
15048;DHT22;7621;52.350;13.308;2023-03-20T09:39:46;15.80;91.90
15048;DHT22;7621;52.350;13.308;2023-03-20T09:45:06;15.60;91.30
15048;DHT22;7621;52.350;13.308;2023-03-20T09:50:37;15.50;92.10
15048;DHT22;7621;52.350;13.308;2023-03-20T09:53:17;15.70;92.20
15048;DHT22;7621;52.350;13.308;2023-03-20T09:55:44;15.80;91.60
15048;DHT22;7621;52.350;13.308;2023-03-20T09:58:14;15.90;91.30
15048;DHT22;7621;52.350;13.308;2023-03-20T10:00:44;16.00;90.50
15048;DHT22;7621;52.350;13.308;2023-03-20T10:03:31;16.00;90.20
15048;DHT22;7621;52.350;13.308;2023-03-20T10:06:15;15.90;90.30
15048;DHT22;7621;52.350;13.308;2023-03-20T10:08:42;15.90;90.60
15048;DHT22;7621;52.350;13.308;2023-03-20T10:11:34;15.90;90.80
15048;DHT22;7621;52.350;13.308;2023-03-20T10:19:50;16.00;90.00
15048;DHT22;7621;52.350;13.308;2023-03-20T10:22:24;16.00;90.00
15048;DHT22;7621;52.350;13.308;2023-03-20T10:24:56;16.00;89.60
15048;DHT22;7621;52.350;13.308;2023-03-20T10:27:25;16.00;90.00
15048;DHT22;7621;52.350;13.308;2023-03-20T10:33:02;16.20;88.70
15048;DHT22;7621;52.350;13.308;2023-03-20T10:35:47;16.30;87.80
15048;DHT22;7621;52.350;13.308;2023-03-20T10:38:54;16.30;86.80
15048;DHT22;7621;52.350;13.308;2023-03-20T10:41:31;16.20;86.60
15048;DHT22;7621;52.350;13.308;2023-03-20T10:43:58;16.20;86.60
15048;DHT22;7621;52.350;13.308;2023-03-20T10:46:31;16.10;86.10
15048;DHT22;7621;52.350;13.308;2023-03-20T10:48:59;16.00;86.30
15048;DHT22;7621;52.350;13.308;2023-03-20T10:51:51;16.10;86.80
15048;DHT22;7621;52.350;13.308;2023-03-20T10:54:26;16.30;87.20
15048;DHT22;7621;52.350;13.308;2023-03-20T10:56:55;16.50;86.50
15048;DHT22;7621;52.350;13.308;2023-03-20T10:59:26;16.60;85.30
15048;DHT22;7621;52.350;13.308;2023-03-20T11:01:52;16.70;84.60
15048;DHT22;7621;52.350;13.308;2023-03-20T11:04:18;16.60;84.30
15048;DHT22;7621;52.350;13.308;2023-03-20T11:09:23;16.40;84.80
15048;DHT22;7621;52.350;13.308;2023-03-20T11:11:54;16.30;85.30
15048;DHT22;7621;52.350;13.308;2023-03-20T11:14:24;16.20;84.90
15048;DHT22;7621;52.350;13.308;2023-03-20T11:16:52;16.00;85.30
15048;DHT22;7621;52.350;13.308;2023-03-20T11:19:19;16.00;86.10
15048;DHT22;7621;52.350;13.308;2023-03-20T11:21:55;16.00;86.20
15048;DHT22;7621;52.350;13.308;2023-03-20T11:24:25;15.90;86.40
15048;DHT22;7621;52.350;13.308;2023-03-20T11:26:51;15.90;85.90
15048;DHT22;7621;52.350;13.308;2023-03-20T11:29:30;15.80;85.50
15048;DHT22;7621;52.350;13.308;2023-03-20T11:34:32;15.80;86.50
15048;DHT22;7621;52.350;13.308;2023-03-20T11:37:00;15.90;86.20
15048;DHT22;7621;52.350;13.308;2023-03-20T11:39:30;16.00;85.70
15048;DHT22;7621;52.350;13.308;2023-03-20T11:41:59;16.00;85.10
15048;DHT22;7621;52.350;13.308;2023-03-20T11:44:32;16.00;84.70
15048;DHT22;7621;52.350;13.308;2023-03-20T11:47:21;16.00;84.50
15048;DHT22;7621;52.350;13.308;2023-03-20T11:49:58;15.80;84.30
15048;DHT22;7621;52.350;13.308;2023-03-20T11:52:31;15.70;84.90
15048;DHT22;7621;52.350;13.308;2023-03-20T11:54:59;15.60;85.40
15048;DHT22;7621;52.350;13.308;2023-03-20T11:57:34;15.60;86.30
15048;DHT22;7621;52.350;13.308;2023-03-20T12:02:40;16.00;86.60
15048;DHT22;7621;52.350;13.308;2023-03-20T12:05:30;16.10;84.80
15048;DHT22;7621;52.350;13.308;2023-03-20T12:08:20;16.20;83.90
15048;DHT22;7621;52.350;13.308;2023-03-20T12:10:49;16.20;83.80
15048;DHT22;7621;52.350;13.308;2023-03-20T12:13:26;16.10;82.40
15048;DHT22;7621;52.350;13.308;2023-03-20T12:15:57;15.90;82.60
15048;DHT22;7621;52.350;13.308;2023-03-20T12:21:29;15.50;83.20
15048;DHT22;7621;52.350;13.308;2023-03-20T12:29:42;15.40;85.20
15048;DHT22;7621;52.350;13.308;2023-03-20T12:32:29;15.60;85.60
15048;DHT22;7621;52.350;13.308;2023-03-20T12:35:10;15.80;85.30
15048;DHT22;7621;52.350;13.308;2023-03-20T12:37:37;16.20;84.40
15048;DHT22;7621;52.350;13.308;2023-03-20T12:40:03;16.40;82.80
15048;DHT22;7621;52.350;13.308;2023-03-20T12:42:42;16.60;82.00
15048;DHT22;7621;52.350;13.308;2023-03-20T12:45:20;16.80;81.10
15048;DHT22;7621;52.350;13.308;2023-03-20T12:48:09;16.80;80.70
15048;DHT22;7621;52.350;13.308;2023-03-20T12:50:49;16.80;80.40
15048;DHT22;7621;52.350;13.308;2023-03-20T12:59:01;16.70;80.50
15048;DHT22;7621;52.350;13.308;2023-03-20T13:01:55;16.50;79.80
15048;DHT22;7621;52.350;13.308;2023-03-20T13:04:39;16.30;79.80
15048;DHT22;7621;52.350;13.308;2023-03-20T13:07:20;16.10;80.50
15048;DHT22;7621;52.350;13.308;2023-03-20T13:15:45;15.80;81.80
15048;DHT22;7621;52.350;13.308;2023-03-20T13:21:23;15.80;82.90
15048;DHT22;7621;52.350;13.308;2023-03-20T13:23:57;15.80;82.50
15048;DHT22;7621;52.350;13.308;2023-03-20T13:26:35;15.80;82.60
15048;DHT22;7621;52.350;13.308;2023-03-20T13:32:47;15.80;82.60
15048;DHT22;7621;52.350;13.308;2023-03-20T13:35:07;15.90;82.90
15048;DHT22;7621;52.350;13.308;2023-03-20T13:37:40;15.90;82.90
15048;DHT22;7621;52.350;13.308;2023-03-20T13:40:25;16.00;82.50
15048;DHT22;7621;52.350;13.308;2023-03-20T13:46:15;16.10;81.20
15048;DHT22;7621;52.350;13.308;2023-03-20T13:48:44;16.00;81.20
15048;DHT22;7621;52.350;13.308;2023-03-20T13:51:35;16.00;81.40
15048;DHT22;7621;52.350;13.308;2023-03-20T13:54:14;16.00;81.60
15048;DHT22;7621;52.350;13.308;2023-03-20T13:57:10;16.00;81.50
15048;DHT22;7621;52.350;13.308;2023-03-20T14:00:00;16.00;81.80
15048;DHT22;7621;52.350;13.308;2023-03-20T14:02:32;15.80;82.00
15048;DHT22;7621;52.350;13.308;2023-03-20T14:05:21;15.70;82.30
15048;DHT22;7621;52.350;13.308;2023-03-20T14:07:49;15.60;83.20
15048;DHT22;7621;52.350;13.308;2023-03-20T14:15:13;15.20;83.80
15048;DHT22;7621;52.350;13.308;2023-03-20T14:17:43;15.00;84.40
15048;DHT22;7621;52.350;13.308;2023-03-20T14:20:32;14.90;84.90
15048;DHT22;7621;52.350;13.308;2023-03-20T14:22:58;14.80;85.60
15048;DHT22;7621;52.350;13.308;2023-03-20T14:25:26;14.60;86.40
15048;DHT22;7621;52.350;13.308;2023-03-20T14:27:59;14.50;87.10
15048;DHT22;7621;52.350;13.308;2023-03-20T14:33:04;14.30;88.10
15048;DHT22;7621;52.350;13.308;2023-03-20T14:35:35;14.30;88.30
15048;DHT22;7621;52.350;13.308;2023-03-20T14:38:23;14.20;88.60
15048;DHT22;7621;52.350;13.308;2023-03-20T14:40:59;14.20;89.50
15048;DHT22;7621;52.350;13.308;2023-03-20T14:46:38;14.10;90.10
15048;DHT22;7621;52.350;13.308;2023-03-20T14:54:41;14.00;90.60
15048;DHT22;7621;52.350;13.308;2023-03-20T14:57:24;14.00;90.70
15048;DHT22;7621;52.350;13.308;2023-03-20T14:59:50;13.90;90.80
15048;DHT22;7621;52.350;13.308;2023-03-20T15:02:47;13.90;91.00
15048;DHT22;7621;52.350;13.308;2023-03-20T15:05:43;14.00;91.20
15048;DHT22;7621;52.350;13.308;2023-03-20T15:08:13;14.10;91.40
15048;DHT22;7621;52.350;13.308;2023-03-20T15:10:52;14.20;91.30
15048;DHT22;7621;52.350;13.308;2023-03-20T15:13:19;14.40;91.20
15048;DHT22;7621;52.350;13.308;2023-03-20T15:15:54;14.50;91.00
15048;DHT22;7621;52.350;13.308;2023-03-20T15:18:22;14.60;90.80
15048;DHT22;7621;52.350;13.308;2023-03-20T15:20:48;14.60;90.80
15048;DHT22;7621;52.350;13.308;2023-03-20T15:23:14;14.60;90.80
15048;DHT22;7621;52.350;13.308;2023-03-20T15:25:42;14.60;90.70
15048;DHT22;7621;52.350;13.308;2023-03-20T15:28:21;14.60;90.70
15048;DHT22;7621;52.350;13.308;2023-03-20T15:30:49;14.60;90.70
15048;DHT22;7621;52.350;13.308;2023-03-20T15:33:22;14.60;90.70
15048;DHT22;7621;52.350;13.308;2023-03-20T15:35:49;14.60;90.80
15048;DHT22;7621;52.350;13.308;2023-03-20T15:38:16;14.60;90.90
15048;DHT22;7621;52.350;13.308;2023-03-20T15:40:42;14.50;91.00
15048;DHT22;7621;52.350;13.308;2023-03-20T15:43:23;14.50;90.90
15048;DHT22;7621;52.350;13.308;2023-03-20T15:45:50;14.40;90.90
15048;DHT22;7621;52.350;13.308;2023-03-20T15:48:20;14.40;90.90
15048;DHT22;7621;52.350;13.308;2023-03-20T15:50:52;14.40;91.10
15048;DHT22;7621;52.350;13.308;2023-03-20T15:53:26;14.30;91.10
15048;DHT22;7621;52.350;13.308;2023-03-20T15:56:12;14.30;91.20
15048;DHT22;7621;52.350;13.308;2023-03-20T15:58:40;14.20;91.30
15048;DHT22;7621;52.350;13.308;2023-03-20T16:01:07;14.20;91.40
15048;DHT22;7621;52.350;13.308;2023-03-20T16:03:34;14.10;91.40
15048;DHT22;7621;52.350;13.308;2023-03-20T16:06:04;14.10;91.50
15048;DHT22;7621;52.350;13.308;2023-03-20T16:08:33;14.10;91.60
15048;DHT22;7621;52.350;13.308;2023-03-20T16:11:07;14.00;91.80
15048;DHT22;7621;52.350;13.308;2023-03-20T16:13:42;14.00;91.90
15048;DHT22;7621;52.350;13.308;2023-03-20T16:16:19;14.00;92.00
15048;DHT22;7621;52.350;13.308;2023-03-20T16:18:46;13.90;92.10
15048;DHT22;7621;52.350;13.308;2023-03-20T16:23:47;13.90;92.30
15048;DHT22;7621;52.350;13.308;2023-03-20T16:26:18;13.80;92.30
15048;DHT22;7621;52.350;13.308;2023-03-20T16:28:46;13.80;92.30
15048;DHT22;7621;52.350;13.308;2023-03-20T16:31:19;13.80;92.40
15048;DHT22;7621;52.350;13.308;2023-03-20T16:33:45;13.70;92.40
15048;DHT22;7621;52.350;13.308;2023-03-20T16:36:19;13.70;92.60
15048;DHT22;7621;52.350;13.308;2023-03-20T16:39:01;13.70;92.70
15048;DHT22;7621;52.350;13.308;2023-03-20T16:41:37;13.60;92.70
15048;DHT22;7621;52.350;13.308;2023-03-20T16:44:12;13.60;92.80
15048;DHT22;7621;52.350;13.308;2023-03-20T16:46:59;13.60;92.80
15048;DHT22;7621;52.350;13.308;2023-03-20T16:51:57;13.50;93.00
15048;DHT22;7621;52.350;13.308;2023-03-20T16:54:26;13.50;93.10
15048;DHT22;7621;52.350;13.308;2023-03-20T16:56:54;13.50;93.20
15048;DHT22;7621;52.350;13.308;2023-03-20T16:59:21;13.50;93.30
15048;DHT22;7621;52.350;13.308;2023-03-20T17:01:48;13.40;93.30
15048;DHT22;7621;52.350;13.308;2023-03-20T17:06:50;13.40;93.50
15048;DHT22;7621;52.350;13.308;2023-03-20T17:09:21;13.40;93.60
15048;DHT22;7621;52.350;13.308;2023-03-20T17:11:55;13.30;93.60
15048;DHT22;7621;52.350;13.308;2023-03-20T17:14:22;13.30;93.70
15048;DHT22;7621;52.350;13.308;2023-03-20T17:16:50;13.30;93.80
15048;DHT22;7621;52.350;13.308;2023-03-20T17:19:17;13.20;93.80
15048;DHT22;7621;52.350;13.308;2023-03-20T17:21:43;13.20;93.90
15048;DHT22;7621;52.350;13.308;2023-03-20T17:24:10;13.20;94.10
15048;DHT22;7621;52.350;13.308;2023-03-20T17:26:36;13.20;94.20
15048;DHT22;7621;52.350;13.308;2023-03-20T17:29:02;13.10;94.20
15048;DHT22;7621;52.350;13.308;2023-03-20T17:31:28;13.10;94.30
15048;DHT22;7621;52.350;13.308;2023-03-20T17:33:54;13.00;94.30
15048;DHT22;7621;52.350;13.308;2023-03-20T17:36:31;13.00;94.30
15048;DHT22;7621;52.350;13.308;2023-03-20T17:38:59;13.00;94.40
15048;DHT22;7621;52.350;13.308;2023-03-20T17:41:25;12.90;94.40
15048;DHT22;7621;52.350;13.308;2023-03-20T17:43:52;12.90;94.40
15048;DHT22;7621;52.350;13.308;2023-03-20T17:46:24;12.80;94.40
15048;DHT22;7621;52.350;13.308;2023-03-20T17:48:55;12.80;94.50
15048;DHT22;7621;52.350;13.308;2023-03-20T17:51:22;12.80;95.10
15048;DHT22;7621;52.350;13.308;2023-03-20T17:53:47;12.70;94.90
15048;DHT22;7621;52.350;13.308;2023-03-20T17:56:14;12.70;95.10
15048;DHT22;7621;52.350;13.308;2023-03-20T17:58:40;12.70;95.20
15048;DHT22;7621;52.350;13.308;2023-03-20T18:01:09;12.70;95.30
15048;DHT22;7621;52.350;13.308;2023-03-20T18:03:35;12.60;95.30
15048;DHT22;7621;52.350;13.308;2023-03-20T18:06:01;12.60;95.40
15048;DHT22;7621;52.350;13.308;2023-03-20T18:08:27;12.60;95.40
15048;DHT22;7621;52.350;13.308;2023-03-20T18:10:53;12.50;95.50
15048;DHT22;7621;52.350;13.308;2023-03-20T18:13:22;12.50;95.70
15048;DHT22;7621;52.350;13.308;2023-03-20T18:15:56;12.40;95.90
15048;DHT22;7621;52.350;13.308;2023-03-20T18:18:22;12.40;96.00
15048;DHT22;7621;52.350;13.308;2023-03-20T18:20:48;12.40;96.00
15048;DHT22;7621;52.350;13.308;2023-03-20T18:23:14;12.30;96.20
15048;DHT22;7621;52.350;13.308;2023-03-20T18:25:40;12.30;96.20
15048;DHT22;7621;52.350;13.308;2023-03-20T18:28:10;12.20;96.20
15048;DHT22;7621;52.350;13.308;2023-03-20T18:30:40;12.20;96.40
15048;DHT22;7621;52.350;13.308;2023-03-20T18:33:06;12.10;96.50
15048;DHT22;7621;52.350;13.308;2023-03-20T18:35:33;12.10;96.60
15048;DHT22;7621;52.350;13.308;2023-03-20T18:37:59;12.00;96.70
15048;DHT22;7621;52.350;13.308;2023-03-20T18:42:56;12.00;96.80
15048;DHT22;7621;52.350;13.308;2023-03-20T18:45:22;11.90;96.70
15048;DHT22;7621;52.350;13.308;2023-03-20T18:47:49;11.90;96.70
15048;DHT22;7621;52.350;13.308;2023-03-20T18:50:27;11.90;96.80
15048;DHT22;7621;52.350;13.308;2023-03-20T18:52:54;11.90;96.60
15048;DHT22;7621;52.350;13.308;2023-03-20T18:55:21;11.80;96.30
15048;DHT22;7621;52.350;13.308;2023-03-20T18:57:48;11.80;96.00
15048;DHT22;7621;52.350;13.308;2023-03-20T19:00:25;11.80;95.70
15048;DHT22;7621;52.350;13.308;2023-03-20T19:02:53;11.80;95.30
15048;DHT22;7621;52.350;13.308;2023-03-20T19:05:20;11.80;95.10
15048;DHT22;7621;52.350;13.308;2023-03-20T19:07:46;11.80;94.80
15048;DHT22;7621;52.350;13.308;2023-03-20T19:12:47;11.80;94.10
15048;DHT22;7621;52.350;13.308;2023-03-20T19:15:13;11.80;94.00
15048;DHT22;7621;52.350;13.308;2023-03-20T19:17:38;11.70;93.90
15048;DHT22;7621;52.350;13.308;2023-03-20T19:20:05;11.70;93.80
15048;DHT22;7621;52.350;13.308;2023-03-20T19:22:31;11.70;93.70
15048;DHT22;7621;52.350;13.308;2023-03-20T19:24:57;11.60;93.70
15048;DHT22;7621;52.350;13.308;2023-03-20T19:27:22;11.60;93.70
15048;DHT22;7621;52.350;13.308;2023-03-20T19:29:48;11.60;93.50
15048;DHT22;7621;52.350;13.308;2023-03-20T19:32:13;11.60;93.30
15048;DHT22;7621;52.350;13.308;2023-03-20T19:34:39;11.50;93.20
15048;DHT22;7621;52.350;13.308;2023-03-20T19:37:04;11.50;93.30
15048;DHT22;7621;52.350;13.308;2023-03-20T19:39:30;11.50;93.40
15048;DHT22;7621;52.350;13.308;2023-03-20T19:41:56;11.50;93.30
15048;DHT22;7621;52.350;13.308;2023-03-20T19:44:21;11.50;93.30
15048;DHT22;7621;52.350;13.308;2023-03-20T19:46:47;11.50;93.20
15048;DHT22;7621;52.350;13.308;2023-03-20T19:49:18;11.50;93.10
15048;DHT22;7621;52.350;13.308;2023-03-20T19:51:44;11.50;93.40
15048;DHT22;7621;52.350;13.308;2023-03-20T19:54:10;11.50;93.00
15048;DHT22;7621;52.350;13.308;2023-03-20T19:56:37;11.50;93.00
15048;DHT22;7621;52.350;13.308;2023-03-20T19:59:02;11.40;93.00
15048;DHT22;7621;52.350;13.308;2023-03-20T20:01:30;11.40;93.10
15048;DHT22;7621;52.350;13.308;2023-03-20T20:03:55;11.40;93.20
15048;DHT22;7621;52.350;13.308;2023-03-20T20:06:22;11.40;93.10
15048;DHT22;7621;52.350;13.308;2023-03-20T20:08:48;11.40;93.00
15048;DHT22;7621;52.350;13.308;2023-03-20T20:11:16;11.40;93.10
15048;DHT22;7621;52.350;13.308;2023-03-20T20:13:42;11.40;93.10
15048;DHT22;7621;52.350;13.308;2023-03-20T20:16:08;11.40;93.10
15048;DHT22;7621;52.350;13.308;2023-03-20T20:18:33;11.40;93.10
15048;DHT22;7621;52.350;13.308;2023-03-20T20:20:59;11.40;93.20
15048;DHT22;7621;52.350;13.308;2023-03-20T20:23:27;11.40;93.10
15048;DHT22;7621;52.350;13.308;2023-03-20T20:25:55;11.40;93.10
15048;DHT22;7621;52.350;13.308;2023-03-20T20:28:21;11.30;93.00
15048;DHT22;7621;52.350;13.308;2023-03-20T20:30:49;11.30;93.10
15048;DHT22;7621;52.350;13.308;2023-03-20T20:33:16;11.30;93.10
15048;DHT22;7621;52.350;13.308;2023-03-20T20:35:42;11.30;93.20
15048;DHT22;7621;52.350;13.308;2023-03-20T20:38:08;11.30;93.20
15048;DHT22;7621;52.350;13.308;2023-03-20T20:40:33;11.30;93.10
15048;DHT22;7621;52.350;13.308;2023-03-20T20:42:59;11.30;93.00
15048;DHT22;7621;52.350;13.308;2023-03-20T20:45:26;11.30;93.00
15048;DHT22;7621;52.350;13.308;2023-03-20T20:47:53;11.30;93.10
15048;DHT22;7621;52.350;13.308;2023-03-20T20:50:23;11.30;93.20
15048;DHT22;7621;52.350;13.308;2023-03-20T20:52:50;11.30;93.10
15048;DHT22;7621;52.350;13.308;2023-03-20T20:55:18;11.30;93.10
15048;DHT22;7621;52.350;13.308;2023-03-20T20:57:44;11.30;93.20
15048;DHT22;7621;52.350;13.308;2023-03-20T21:00:10;11.30;93.20
15048;DHT22;7621;52.350;13.308;2023-03-20T21:02:36;11.30;93.20
